createdAt,value
2022-11-26T00:00:56.139Z,97474.31
2022-11-26T00:03:24.587Z,97480.41
2022-11-26T00:05:57.781Z,97476.94
2022-11-26T00:08:34.569Z,97480.84
2022-11-26T00:11:03.758Z,97482.84
2022-11-26T00:13:32.479Z,97483.84
2022-11-26T00:16:00.595Z,97489.72
2022-11-26T00:18:28.659Z,97498.25
2022-11-26T00:21:00.935Z,97495.91
2022-11-26T00:23:30.889Z,97498.72
2022-11-26T00:26:01.573Z,97504.78
2022-11-26T00:28:32.794Z,97505.59
2022-11-26T00:31:03.954Z,97506.25
2022-11-26T00:33:33.128Z,97508.63
2022-11-26T00:36:07.721Z,97503.16
2022-11-26T00:38:37.171Z,97514.25
2022-11-26T00:41:05.494Z,97514.66
2022-11-26T00:43:33.596Z,97517.03
2022-11-26T00:46:02.529Z,97521.09
2022-11-26T00:48:31.894Z,97525.34
2022-11-26T00:51:00.193Z,97536.03
2022-11-26T00:53:29.361Z,97541.50
2022-11-26T00:55:59.132Z,97532.78
2022-11-26T00:58:30.554Z,97537.59
2022-11-26T01:01:00.684Z,97542.47
2022-11-26T01:03:30.338Z,97550.72
2022-11-26T01:06:02.267Z,97552.34
2022-11-26T01:08:34.009Z,97554.13
2022-11-26T01:11:06.027Z,97561.50
2022-11-26T01:13:34.752Z,97570.25
2022-11-26T01:16:14.410Z,97570.72
2022-11-26T01:18:42.624Z,97572.41
2022-11-26T01:21:11.256Z,97572.06
2022-11-26T01:23:39.565Z,97581.47
2022-11-26T01:26:16.902Z,97577.22
2022-11-26T01:28:45.636Z,97575.22
2022-11-26T01:31:17.489Z,97587.34
2022-11-26T01:33:46.291Z,97588.16
2022-11-26T01:36:24.496Z,97587.66
2022-11-26T01:38:53.106Z,97590.97
2022-11-26T01:41:42.148Z,97594.13
2022-11-26T01:44:19.849Z,97591.84
2022-11-26T01:46:49.509Z,97597.56
2022-11-26T01:49:22.152Z,97593.47
2022-11-26T01:51:57.079Z,97600.84
2022-11-26T01:54:25.729Z,97598.38
2022-11-26T01:56:57.951Z,97607.59
2022-11-26T01:59:31.298Z,97609.28
2022-11-26T02:02:01.484Z,97613.63
2022-11-26T02:04:34.163Z,97614.75
2022-11-26T02:07:02.464Z,97613.13
2022-11-26T02:09:31.952Z,97608.16
2022-11-26T02:12:01.635Z,97608.47
2022-11-26T02:14:33.468Z,97612.38
2022-11-26T02:17:21.193Z,97616.66
2022-11-26T02:20:30.119Z,97616.16
2022-11-26T02:23:43.965Z,97622.41
2022-11-26T02:27:03.681Z,97622.53
2022-11-26T02:30:06.823Z,97634.31
2022-11-26T02:32:54.364Z,97639.53
2022-11-26T02:35:31.661Z,97637.06
2022-11-26T02:38:04.186Z,97644.44
2022-11-26T02:40:32.789Z,97642.69
2022-11-26T02:43:01.130Z,97651.38
2022-11-26T02:45:34.957Z,97649.28
2022-11-26T02:48:07.982Z,97656.28
2022-11-26T02:50:40.430Z,97666.13
2022-11-26T02:53:10.499Z,97662.59
2022-11-26T02:55:44.202Z,97663.88
2022-11-26T02:58:12.433Z,97661.75
2022-11-26T03:00:43.882Z,97673.72
2022-11-26T03:03:23.733Z,97679.31
2022-11-26T03:05:55.574Z,97678.34
2022-11-26T03:08:25.594Z,97685.56
2022-11-26T03:10:53.887Z,97678.00
2022-11-26T03:13:22.203Z,97678.84
2022-11-26T03:15:51.752Z,97674.75
2022-11-26T03:18:20.045Z,97681.97
2022-11-26T03:20:52.131Z,97673.97
2022-11-26T03:23:20.597Z,97682.38
2022-11-26T03:25:48.823Z,97683.66
2022-11-26T03:28:16.979Z,97684.66
2022-11-26T03:30:45.117Z,97686.28
2022-11-26T03:33:14.579Z,97690.06
2022-11-26T03:35:42.859Z,97696.00
2022-11-26T03:38:10.992Z,97694.22
2022-11-26T03:40:39.148Z,97694.84
2022-11-26T03:43:07.314Z,97705.81
2022-11-26T03:45:35.495Z,97705.47
2022-11-26T03:48:03.637Z,97703.13
2022-11-26T03:50:33.116Z,97707.59
2022-11-26T03:53:01.256Z,97709.91
2022-11-26T03:55:29.386Z,97706.63
2022-11-26T03:57:57.513Z,97713.22
2022-11-26T04:00:25.755Z,97711.91
2022-11-26T04:02:53.941Z,97714.53
2022-11-26T04:05:22.135Z,97719.16
2022-11-26T04:07:51.684Z,97716.00
2022-11-26T04:10:20.064Z,97712.06
2022-11-26T04:12:48.159Z,97719.94
2022-11-26T04:15:16.450Z,97721.25
2022-11-26T04:17:44.601Z,97716.50
2022-11-26T04:20:13.641Z,97714.03
2022-11-26T04:22:41.790Z,97724.88
2022-11-26T04:25:11.866Z,97723.53
2022-11-26T04:27:40.219Z,97719.94
2022-11-26T04:30:10.280Z,97712.59
2022-11-26T04:32:39.869Z,97712.53
2022-11-26T04:35:09.467Z,97717.97
2022-11-26T04:37:37.819Z,97705.69
2022-11-26T04:40:08.256Z,97708.47
2022-11-26T04:42:37.800Z,97708.97
2022-11-26T04:45:06.945Z,97714.84
2022-11-26T04:47:37.815Z,97722.31
2022-11-26T04:50:10.953Z,97718.84
2022-11-26T04:52:40.361Z,97721.47
2022-11-26T04:55:11.726Z,97720.16
2022-11-26T04:57:41.298Z,97711.16
2022-11-26T05:00:11.996Z,97721.81
2022-11-26T05:02:40.315Z,97728.72
2022-11-26T05:05:09.374Z,97725.13
2022-11-26T05:07:37.567Z,97725.13
2022-11-26T05:10:08.573Z,97727.78
2022-11-26T05:12:36.903Z,97724.66
2022-11-26T05:15:07.983Z,97734.81
2022-11-26T05:17:36.137Z,97732.19
2022-11-26T05:20:05.084Z,97736.28
2022-11-26T05:22:33.306Z,97742.69
2022-11-26T05:25:01.474Z,97744.03
2022-11-26T05:27:29.611Z,97743.53
2022-11-26T05:29:57.737Z,97743.88
2022-11-26T05:32:27.685Z,97749.25
2022-11-26T05:35:00.032Z,97749.78
2022-11-26T05:37:28.617Z,97751.56
2022-11-26T05:39:56.734Z,97756.66
2022-11-26T05:42:24.858Z,97749.78
2022-11-26T05:44:53.122Z,97750.09
2022-11-26T05:47:21.258Z,97755.81
2022-11-26T05:49:50.713Z,97758.94
2022-11-26T05:52:19.026Z,97763.84
2022-11-26T05:54:47.229Z,97764.34
2022-11-26T05:57:15.631Z,97767.13
2022-11-26T05:59:43.918Z,97765.16
2022-11-26T06:02:12.144Z,97764.50
2022-11-26T06:04:40.684Z,97769.41
2022-11-26T06:07:10.856Z,97773.84
2022-11-26T06:09:39.178Z,97772.53
2022-11-26T06:12:07.803Z,97768.91
2022-11-26T06:14:40.306Z,97769.22
2022-11-26T06:17:09.772Z,97775.47
2022-11-26T06:19:37.970Z,97779.22
2022-11-26T06:22:06.139Z,97784.97
2022-11-26T06:24:36.586Z,97789.25
2022-11-26T06:27:05.290Z,97788.56
2022-11-26T06:29:33.733Z,97787.09
2022-11-26T06:32:01.866Z,97791.88
2022-11-26T06:34:36.373Z,97784.66
2022-11-26T06:37:05.039Z,97797.75
2022-11-26T06:39:59.424Z,97791.38
2022-11-26T06:42:33.141Z,97800.38
2022-11-26T06:45:01.275Z,97808.06
2022-11-26T06:47:29.477Z,97803.16
2022-11-26T06:49:57.586Z,97814.97
2022-11-26T06:52:25.766Z,97819.88
2022-11-26T06:54:53.911Z,97825.13
2022-11-26T06:57:23.335Z,97820.84
2022-11-26T06:59:53.097Z,97834.28
2022-11-26T07:02:21.408Z,97827.72
2022-11-26T07:04:49.518Z,97839.97
2022-11-26T07:07:17.708Z,97840.34
2022-11-26T07:09:45.918Z,97842.75
2022-11-26T07:12:14.190Z,97846.53
2022-11-26T07:14:44.433Z,97839.97
2022-11-26T07:17:12.607Z,97854.88
2022-11-26T07:19:40.786Z,97857.84
2022-11-26T07:22:08.963Z,97859.63
2022-11-26T07:24:37.407Z,97872.72
2022-11-26T07:27:05.788Z,97876.78
2022-11-26T07:29:34.119Z,97882.72
2022-11-26T07:32:03.740Z,97887.63
2022-11-26T07:34:32.128Z,97889.56
2022-11-26T07:37:00.324Z,97895.09
2022-11-26T07:39:28.490Z,97894.50
2022-11-26T07:41:56.607Z,97893.50
2022-11-26T07:44:24.760Z,97892.84
2022-11-26T07:46:52.897Z,97895.78
2022-11-26T07:49:22.370Z,97900.50
2022-11-26T07:51:50.494Z,97907.56
2022-11-26T07:54:18.657Z,97907.41
2022-11-26T07:56:52.685Z,97906.56
2022-11-26T07:59:24.106Z,97904.44
2022-11-26T08:01:53.016Z,97911.53
2022-11-26T08:04:24.174Z,97916.97
2022-11-26T08:06:52.504Z,97918.31
2022-11-26T08:09:27.535Z,97916.84
2022-11-26T08:11:57.159Z,97924.06
2022-11-26T08:14:25.541Z,97912.28
2022-11-26T08:16:53.822Z,97914.25
2022-11-26T08:19:23.622Z,97901.31
2022-11-26T08:21:51.816Z,97914.97
2022-11-26T08:24:22.049Z,97917.91
2022-11-26T08:26:51.715Z,97915.63
2022-11-26T08:29:19.941Z,97922.50
2022-11-26T08:31:49.537Z,97925.50
2022-11-26T08:34:18.203Z,97934.31
2022-11-26T08:36:47.815Z,97927.97
2022-11-26T08:39:17.683Z,97931.69
2022-11-26T08:41:52.024Z,97928.59
2022-11-26T08:44:21.553Z,97938.94
2022-11-26T08:46:50.225Z,97934.00
2022-11-26T08:49:18.682Z,97928.44
2022-11-26T08:51:48.256Z,97927.59
2022-11-26T08:54:16.500Z,97920.25
2022-11-26T08:56:44.765Z,97916.97
2022-11-26T08:59:12.871Z,97922.41
2022-11-26T09:01:41.409Z,97916.28
2022-11-26T09:04:09.531Z,97921.03
2022-11-26T09:06:37.841Z,97920.84
2022-11-26T09:09:17.599Z,97920.50
2022-11-26T09:11:50.041Z,97923.06
2022-11-26T09:14:21.254Z,97919.47
2022-11-26T09:16:49.596Z,97925.66
2022-11-26T09:19:19.031Z,97932.38
2022-11-26T09:21:48.466Z,97926.53
2022-11-26T09:24:19.787Z,97922.25
2022-11-26T09:26:48.929Z,97930.59
2022-11-26T09:29:20.154Z,97936.81
2022-11-26T09:34:44.340Z,97929.16
2022-11-26T09:37:12.597Z,97949.38
2022-11-26T09:39:42.059Z,97946.69
2022-11-26T09:42:27.463Z,97952.25
2022-11-26T09:45:09.847Z,97950.59
2022-11-26T09:47:42.691Z,97948.06
2022-11-26T09:50:27.452Z,97956.41
2022-11-26T09:53:01.461Z,97952.44
2022-11-26T09:55:34.572Z,97941.50
2022-11-26T09:58:12.266Z,97945.91
2022-11-26T10:00:44.889Z,97937.28
2022-11-26T10:03:17.236Z,97943.31
2022-11-26T10:05:57.164Z,97941.69
2022-11-26T10:12:26.079Z,97943.59
2022-11-26T10:15:04.365Z,97941.13
2022-11-26T10:17:44.556Z,97940.78
2022-11-26T10:21:08.066Z,97947.22
2022-11-26T10:23:45.540Z,97954.13
2022-11-26T10:26:18.158Z,97944.88
2022-11-26T10:28:50.328Z,97940.00
2022-11-26T10:31:23.168Z,97941.72
2022-11-26T10:33:56.875Z,97938.28
2022-11-26T10:36:29.827Z,97941.31
2022-11-26T10:38:58.017Z,97940.88
2022-11-26T10:41:31.107Z,97941.03
2022-11-26T10:44:30.423Z,97930.66
2022-11-26T10:46:59.788Z,97928.03
2022-11-26T10:49:31.185Z,97925.69
2022-11-26T10:52:03.523Z,97925.50
2022-11-26T10:54:36.046Z,97921.41
2022-11-26T10:57:14.759Z,97921.09
2022-11-26T10:59:53.019Z,97917.66
2022-11-26T11:02:33.971Z,97913.75
2022-11-26T11:05:06.819Z,97909.28
2022-11-26T11:07:44.134Z,97907.44
2022-11-26T11:10:18.572Z,97904.88
2022-11-26T11:12:51.146Z,97900.38
2022-11-26T11:15:25.274Z,97911.59
2022-11-26T11:17:59.973Z,97913.97
2022-11-26T11:20:36.130Z,97909.84
2022-11-26T11:23:35.008Z,97914.41
2022-11-26T11:26:41.536Z,97905.56
2022-11-26T11:29:27.529Z,97894.19
2022-11-26T11:31:58.766Z,97898.09
2022-11-26T11:34:32.774Z,97898.94
2022-11-26T11:37:03.606Z,97900.56
2022-11-26T11:39:34.784Z,97902.47
2022-11-26T11:42:07.555Z,97905.66
2022-11-26T11:44:43.971Z,97905.22
2022-11-26T11:47:35.240Z,97905.31
2022-11-26T11:50:21.916Z,97900.69
2022-11-26T11:53:08.661Z,97900.88
2022-11-26T11:55:59.453Z,97896.03
2022-11-26T11:58:54.997Z,97899.31
2022-11-26T12:01:43.773Z,97894.91
2022-11-26T12:04:44.166Z,97892.38
2022-11-26T12:07:36.585Z,97885.91
2022-11-26T12:10:15.009Z,97890.78
2022-11-26T12:12:47.679Z,97868.75
2022-11-26T12:15:27.309Z,97873.78
2022-11-26T12:18:04.844Z,97880.69
2022-11-26T12:20:41.178Z,97878.22
2022-11-26T12:23:26.959Z,97875.59
2022-11-26T12:26:01.550Z,97876.78
2022-11-26T12:28:32.879Z,97875.34
2022-11-26T12:31:06.643Z,97876.41
2022-11-26T12:33:43.444Z,97876.66
2022-11-26T12:36:23.452Z,97880.22
2022-11-26T12:38:55.170Z,97889.91
2022-11-26T12:41:28.464Z,97881.03
2022-11-26T12:44:06.278Z,97881.63
2022-11-26T12:46:44.688Z,97882.84
2022-11-26T12:49:29.111Z,97882.75
2022-11-26T12:52:17.166Z,97879.94
2022-11-26T12:54:57.705Z,97879.03
2022-11-26T12:57:33.684Z,97877.00
2022-11-26T13:00:08.685Z,97873.66
2022-11-26T13:02:41.254Z,97880.56
2022-11-26T13:05:16.224Z,97865.31
2022-11-26T13:08:07.237Z,97878.66
2022-11-26T13:10:53.222Z,97871.47
2022-11-26T13:13:33.578Z,97865.47
2022-11-26T13:16:10.504Z,97868.94
2022-11-26T13:18:43.986Z,97869.78
2022-11-26T13:21:39.854Z,97868.03
2022-11-26T13:24:44.314Z,97869.78
2022-11-26T13:27:39.191Z,97868.78
2022-11-26T13:30:21.054Z,97874.59
2022-11-26T13:33:27.217Z,97869.97
2022-11-26T13:36:37.825Z,97869.97
2022-11-26T13:39:35.140Z,97869.78
2022-11-26T13:42:27.181Z,97867.41
2022-11-26T13:45:40.398Z,97865.50
2022-11-26T13:48:14.116Z,97867.59
2022-11-26T13:50:48.151Z,97865.03
2022-11-26T13:53:26.823Z,97864.59
2022-11-26T13:56:01.837Z,97859.34
2022-11-26T13:58:34.463Z,97859.78
2022-11-26T14:01:36.949Z,97858.94
2022-11-26T14:04:08.572Z,97856.31
2022-11-26T14:06:37.465Z,97863.66
2022-11-26T14:09:07.107Z,97870.31
2022-11-26T14:11:57.949Z,97861.50
2022-11-26T14:14:37.973Z,97874.75
2022-11-26T14:17:18.783Z,97877.84
2022-11-26T14:20:11.482Z,97874.22
2022-11-26T14:22:40.274Z,97874.50
2022-11-26T14:25:13.286Z,97868.88
2022-11-26T14:27:55.643Z,97869.50
2022-11-26T14:30:32.334Z,97880.84
2022-11-26T14:33:15.678Z,97883.41
2022-11-26T14:35:55.604Z,97881.03
2022-11-26T14:38:27.335Z,97881.13
2022-11-26T14:41:01.211Z,97893.66
2022-11-26T14:44:08.813Z,97894.47
2022-11-26T14:46:37.541Z,97890.56
2022-11-26T14:49:20.841Z,97884.84
2022-11-26T14:51:53.419Z,97881.81
2022-11-26T14:54:29.345Z,97880.03
2022-11-26T14:57:06.159Z,97883.47
2022-11-26T14:59:35.789Z,97893.72
2022-11-26T15:02:28.575Z,97899.16
2022-11-26T15:05:05.640Z,97894.63
2022-11-26T15:07:33.939Z,97891.06
2022-11-26T15:10:05.010Z,97899.31
2022-11-26T15:12:34.641Z,97891.97
2022-11-26T15:15:06.005Z,97895.22
2022-11-26T15:17:35.370Z,97889.84
2022-11-26T15:20:08.772Z,97891.19
2022-11-26T15:22:40.544Z,97887.97
2022-11-26T15:25:18.159Z,97894.25
2022-11-26T15:27:59.084Z,97886.69
2022-11-26T15:30:31.142Z,97882.78
2022-11-26T15:33:02.102Z,97886.97
2022-11-26T15:35:39.793Z,97889.09
2022-11-26T15:38:13.613Z,97884.34
2022-11-26T15:40:48.465Z,97889.31
2022-11-26T15:43:25.771Z,97881.75
2022-11-26T15:45:58.896Z,97881.28
2022-11-26T15:48:50.870Z,97880.28
2022-11-26T15:51:30.694Z,97881.63
2022-11-26T15:54:03.105Z,97873.28
2022-11-26T15:56:35.169Z,97869.66
2022-11-26T15:59:14.483Z,97869.38
2022-11-26T16:01:47.798Z,97861.19
2022-11-26T16:04:43.294Z,97854.66
2022-11-26T16:07:17.594Z,97862.22
2022-11-26T16:09:47.461Z,97865.72
2022-11-26T16:12:32.435Z,97862.09
2022-11-26T16:15:21.527Z,97862.91
2022-11-26T16:17:52.165Z,97865.72
2022-11-26T16:20:23.593Z,97861.81
2022-11-26T16:22:54.629Z,97870.03
2022-11-26T16:25:26.164Z,97878.75
2022-11-26T16:28:07.294Z,97878.75
2022-11-26T16:30:36.097Z,97874.66
2022-11-26T16:33:07.144Z,97875.34
2022-11-26T16:35:51.195Z,97869.78
2022-11-26T16:38:21.505Z,97864.84
2022-11-26T16:40:50.570Z,97867.78
2022-11-26T16:43:19.379Z,97879.97
2022-11-26T16:45:48.704Z,97873.56
2022-11-26T16:48:26.760Z,97867.16
2022-11-26T16:50:56.782Z,97868.16
2022-11-26T16:53:25.162Z,97871.44
2022-11-26T16:55:54.615Z,97872.94
2022-11-26T16:58:28.967Z,97875.41
2022-11-26T17:00:58.276Z,97878.69
2022-11-26T17:03:32.724Z,97865.22
2022-11-26T17:06:05.486Z,97867.56
2022-11-26T17:08:35.247Z,97870.19
2022-11-26T17:11:03.424Z,97878.41
2022-11-26T17:13:31.644Z,97877.59
2022-11-26T17:16:03.048Z,97875.47
2022-11-26T17:18:33.041Z,97876.16
2022-11-26T17:21:01.334Z,97881.19
2022-11-26T17:23:29.441Z,97883.03
2022-11-26T17:25:57.736Z,97883.19
2022-11-26T17:28:26.545Z,97886.16
2022-11-26T17:30:55.875Z,97878.28
2022-11-26T17:33:24.039Z,97883.53
2022-11-26T17:35:53.542Z,97877.94
2022-11-26T17:38:22.779Z,97880.09
2022-11-26T17:40:50.909Z,97885.66
2022-11-26T17:43:19.025Z,97884.03
2022-11-26T17:45:47.217Z,97888.31
2022-11-26T17:48:15.484Z,97881.94
2022-11-26T17:50:43.690Z,97874.53
2022-11-26T17:53:13.209Z,97887.69
2022-11-26T17:55:41.434Z,97885.06
2022-11-26T17:58:12.143Z,97881.81
2022-11-26T18:00:40.383Z,97879.22
2022-11-26T18:03:08.760Z,97885.75
2022-11-26T18:05:41.789Z,97886.56
2022-11-26T18:08:10.274Z,97886.22
2022-11-26T18:10:41.972Z,97878.53
2022-11-26T18:13:10.314Z,97884.94
2022-11-26T18:15:38.430Z,97885.94
2022-11-26T18:18:07.544Z,97889.34
2022-11-26T18:20:35.834Z,97887.72
2022-11-26T18:23:04.077Z,97886.25
2022-11-26T18:25:34.691Z,97890.88
2022-11-26T18:28:04.207Z,97871.50
2022-11-26T18:30:32.385Z,97871.34
2022-11-26T18:33:01.713Z,97883.16
2022-11-26T18:35:29.901Z,97880.03
2022-11-26T18:37:59.464Z,97880.72
2022-11-26T18:40:27.575Z,97882.34
2022-11-26T18:42:55.945Z,97887.59
2022-11-26T18:45:25.428Z,97885.44
2022-11-26T18:47:53.629Z,97884.63
2022-11-26T18:50:21.867Z,97874.47
2022-11-26T18:52:49.976Z,97875.47
2022-11-26T18:55:18.900Z,97890.38
2022-11-26T18:57:46.989Z,97889.75
2022-11-26T19:00:16.834Z,97889.91
2022-11-26T19:02:46.348Z,97888.09
2022-11-26T19:05:15.006Z,97885.63
2022-11-26T19:07:43.245Z,97877.94
2022-11-26T19:13:05.706Z,97874.81
2022-11-26T19:15:34.515Z,97870.88
2022-11-26T19:18:03.965Z,97859.88
2022-11-26T19:20:32.143Z,97868.75
2022-11-26T19:23:00.221Z,97862.66
2022-11-26T19:25:30.173Z,97860.22
2022-11-26T19:28:03.455Z,97868.41
2022-11-26T19:30:33.116Z,97865.78
2022-11-26T19:33:02.766Z,97853.78
2022-11-26T19:35:30.895Z,97854.31
2022-11-26T19:37:59.146Z,97849.84
2022-11-26T19:40:27.599Z,97853.63
2022-11-26T19:42:55.853Z,97853.31
2022-11-26T19:45:24.668Z,97855.59
2022-11-26T19:47:52.923Z,97845.31
2022-11-26T19:50:22.407Z,97845.31
2022-11-26T19:52:50.676Z,97841.84
2022-11-26T19:55:18.972Z,97838.72
2022-11-26T19:57:47.129Z,97837.06
2022-11-26T20:00:26.055Z,97833.50
2022-11-26T20:02:54.321Z,97832.00
2022-11-26T20:05:23.874Z,97830.84
2022-11-26T20:07:52.071Z,97829.38
2022-11-26T20:10:20.693Z,97832.50
2022-11-26T20:12:48.793Z,97828.06
2022-11-26T20:15:18.198Z,97831.34
2022-11-26T20:17:46.305Z,97830.88
2022-11-26T20:20:14.644Z,97835.59
2022-11-26T20:22:44.118Z,97835.94
2022-11-26T20:25:15.305Z,97836.75
2022-11-26T20:27:49.661Z,97831.69
2022-11-26T20:30:42.005Z,97841.19
2022-11-26T20:33:11.761Z,97837.75
2022-11-26T20:35:41.430Z,97834.31
2022-11-26T20:38:11.189Z,97833.50
2022-11-26T20:40:40.999Z,97827.75
2022-11-26T20:43:09.305Z,97829.06
2022-11-26T20:45:38.001Z,97821.03
2022-11-26T20:48:06.555Z,97814.00
2022-11-26T20:50:34.767Z,97813.19
2022-11-26T20:53:02.922Z,97813.34
2022-11-26T20:55:32.435Z,97815.97
2022-11-26T20:58:00.576Z,97808.56
2022-11-26T21:00:28.665Z,97812.03
2022-11-26T21:02:56.983Z,97814.63
2022-11-26T21:05:25.691Z,97812.84
2022-11-26T21:07:53.882Z,97803.84
2022-11-26T21:10:25.142Z,97804.00
2022-11-26T21:12:54.644Z,97808.25
2022-11-26T21:15:23.613Z,97824.66
2022-11-26T21:17:52.566Z,97828.56
2022-11-26T21:20:20.702Z,97826.59
2022-11-26T21:22:48.863Z,97819.53
2022-11-26T21:25:17.088Z,97818.38
2022-11-26T21:27:45.223Z,97822.00
2022-11-26T21:30:16.705Z,97816.78
2022-11-26T21:32:44.878Z,97824.63
2022-11-26T21:35:12.959Z,97831.81
2022-11-26T21:37:41.040Z,97821.78
2022-11-26T21:40:11.249Z,97829.78
2022-11-26T21:42:39.376Z,97829.78
2022-11-26T21:45:09.280Z,97827.97
2022-11-26T21:47:38.745Z,97824.19
2022-11-26T21:50:10.564Z,97825.16
2022-11-26T21:52:39.088Z,97824.00
2022-11-26T21:55:33.057Z,97839.03
2022-11-26T21:58:03.147Z,97834.47
2022-11-26T22:00:31.658Z,97831.97
2022-11-26T22:03:11.309Z,97833.41
2022-11-26T22:05:41.711Z,97828.88
2022-11-26T22:08:10.079Z,97830.16
2022-11-26T22:10:38.587Z,97832.06
2022-11-26T22:13:12.407Z,97830.28
2022-11-26T22:15:46.639Z,97835.81
2022-11-26T22:18:16.189Z,97836.47
2022-11-26T22:20:52.296Z,97829.72
2022-11-26T22:23:26.849Z,97820.91
2022-11-26T22:25:55.009Z,97827.91
2022-11-26T22:28:28.483Z,97824.22
2022-11-26T22:30:58.197Z,97827.81
2022-11-26T22:33:27.725Z,97824.50
2022-11-26T22:35:55.786Z,97817.94
2022-11-26T22:38:23.941Z,97813.44
2022-11-26T22:40:52.003Z,97814.25
2022-11-26T22:43:20.134Z,97814.97
2022-11-26T22:45:48.484Z,97814.63
2022-11-26T22:48:16.607Z,97823.06
2022-11-26T22:50:52.693Z,97814.84
2022-11-26T22:53:21.157Z,97818.28
2022-11-26T22:55:54.026Z,97820.41
2022-11-26T22:58:23.087Z,97812.34
2022-11-26T23:00:54.264Z,97818.28
2022-11-26T23:03:22.462Z,97820.84
2022-11-26T23:06:08.339Z,97834.81
2022-11-26T23:08:37.445Z,97836.50
2022-11-26T23:11:18.192Z,97833.63
2022-11-26T23:13:48.277Z,97833.00
2022-11-26T23:16:22.378Z,97817.75
2022-11-26T23:18:51.563Z,97818.88
2022-11-26T23:21:23.765Z,97821.66
2022-11-26T23:23:52.991Z,97821.28
2022-11-26T23:26:27.139Z,97814.72
2022-11-26T23:28:57.757Z,97812.22
2022-11-26T23:31:28.906Z,97802.72
2022-11-26T23:33:57.395Z,97806.47
2022-11-26T23:36:28.578Z,97798.25
2022-11-26T23:38:59.713Z,97790.66
2022-11-26T23:41:28.090Z,97784.06
2022-11-26T23:43:56.409Z,97779.34
2022-11-26T23:46:27.359Z,97766.63
2022-11-26T23:48:56.003Z,97763.88
2022-11-26T23:51:30.324Z,97760.06
2022-11-26T23:53:58.609Z,97756.44
2022-11-26T23:56:29.273Z,97758.19
2022-11-26T23:59:02.401Z,97750.16
